Time;durP1;ratioP1;P1;durP2;ratioP2;P2;SDS_P1;SDS_P2;PMS_P1;PMS_P2;Temp;Humidity;BMP_temperature;BMP_pressure;BME280_temperature;BME280_humidity;BME280_pressure;Samples;Min_cycle;Max_cycle;Signal;HPM_P1;HPM_P2
2022/03/08 00:02:21;;;;;;;0.50;0.10;;;2.70;99.90;;;;;;4953161;29;20440;-77
2022/03/08 00:04:51;;;;;;;0.50;0.10;;;2.70;99.90;;;;;;4933846;29;20458;-75
2022/03/08 00:07:19;;;;;;;0.50;0.10;;;2.70;99.90;;;;;;4933528;29;20444;-74
2022/03/08 00:09:47;;;;;;;0.50;0.10;;;2.70;99.90;;;;;;4942343;29;20467;-76
2022/03/08 00:12:14;;;;;;;0.50;0.10;;;2.70;99.90;;;;;;4952585;29;20520;-76
2022/03/08 00:14:42;;;;;;;0.50;0.10;;;2.60;99.90;;;;;;4952190;29;20509;-75
2022/03/08 00:17:14;;;;;;;0.50;0.13;;;2.60;99.90;;;;;;4966970;28;20439;-76
2022/03/08 00:19:42;;;;;;;0.50;0.10;;;2.60;99.90;;;;;;4963110;29;20859;-76
2022/03/08 00:22:11;;;;;;;0.50;0.10;;;2.60;99.90;;;;;;4965062;29;20971;-75
2022/03/08 00:24:39;;;;;;;0.50;0.10;;;2.50;99.90;;;;;;4957501;29;20447;-75
2022/03/08 00:27:07;;;;;;;0.50;0.10;;;2.50;99.90;;;;;;4953928;29;20810;-75
2022/03/08 00:29:35;;;;;;;0.50;0.10;;;2.50;99.90;;;;;;4956264;29;20488;-75
2022/03/08 00:32:03;;;;;;;0.50;0.10;;;2.50;99.90;;;;;;4955943;29;20510;-76
2022/03/08 00:34:31;;;;;;;0.50;0.10;;;2.50;99.90;;;;;;4957146;29;20443;-75
2022/03/08 00:36:58;;;;;;;2.00;1.90;;;2.50;99.90;;;;;;4957743;29;20461;-76
2022/03/08 00:39:27;;;;;;;0.50;0.10;;;2.40;99.90;;;;;;4956088;29;20459;-73
2022/03/08 00:41:55;;;;;;;0.50;0.10;;;2.40;99.90;;;;;;4959661;29;20447;-73
2022/03/08 00:44:23;;;;;;;0.50;0.10;;;2.40;99.90;;;;;;4965559;29;20454;-76
2022/03/08 00:46:51;;;;;;;0.50;0.10;;;2.40;99.90;;;;;;4957722;29;20534;-74
2022/03/08 00:49:19;;;;;;;0.50;0.10;;;2.40;99.90;;;;;;4956904;29;20823;-75
2022/03/08 00:51:47;;;;;;;0.50;0.10;;;2.40;99.90;;;;;;4957967;29;21015;-75
2022/03/08 00:54:15;;;;;;;0.50;0.10;;;2.40;99.90;;;;;;4949980;29;20463;-75
2022/03/08 00:56:44;;;;;;;0.50;0.10;;;2.40;99.90;;;;;;4939834;29;20450;-74
2022/03/08 00:59:12;;;;;;;0.97;0.97;;;2.50;99.90;;;;;;4939024;29;20464;-75
2022/03/08 01:01:39;;;;;;;0.50;0.10;;;2.50;99.90;;;;;;4956508;29;20443;-75
2022/03/08 01:04:08;;;;;;;0.50;0.20;;;2.60;99.90;;;;;;4958802;29;20447;-76
2022/03/08 01:06:35;;;;;;;0.50;0.20;;;2.60;99.90;;;;;;4957049;29;20455;-76
2022/03/08 01:09:04;;;;;;;0.50;0.10;;;2.60;99.90;;;;;;4956032;29;20827;-76
2022/03/08 01:11:32;;;;;;;0.50;0.10;;;2.60;99.90;;;;;;4946232;29;20491;-75
2022/03/08 01:14:01;;;;;;;0.50;0.20;;;2.60;99.90;;;;;;4939174;29;20447;-75
2022/03/08 01:16:29;;;;;;;0.60;0.33;;;2.50;99.90;;;;;;4950095;29;20447;-75
2022/03/08 01:18:57;;;;;;;0.50;0.13;;;2.50;99.90;;;;;;4955961;28;20473;-75
2022/03/08 01:21:25;;;;;;;0.50;0.10;;;2.50;99.90;;;;;;4955905;29;20457;-75
2022/03/08 01:23:53;;;;;;;0.50;0.10;;;2.50;99.90;;;;;;4956088;29;20466;-76
2022/03/08 01:26:20;;;;;;;0.50;0.10;;;2.50;99.90;;;;;;4955524;29;20455;-75
2022/03/08 01:28:48;;;;;;;0.50;0.10;;;2.60;99.90;;;;;;4955701;28;20466;-76
2022/03/08 01:31:18;;;;;;;0.50;0.10;;;2.60;99.90;;;;;;4960144;29;20483;-75
2022/03/08 01:33:46;;;;;;;0.50;0.10;;;2.50;99.90;;;;;;4964865;29;20443;-75
2022/03/08 01:36:14;;;;;;;0.50;0.10;;;2.40;99.90;;;;;;4956815;29;20443;-75
2022/03/08 01:38:42;;;;;;;0.60;0.57;;;;;;;;;;4957960;29;20526;-74
2022/03/08 01:41:10;;;;;;;0.50;0.10;;;2.40;99.90;;;;;;4958320;29;20450;-74
2022/03/08 01:43:38;;;;;;;0.50;0.10;;;2.30;99.90;;;;;;4961621;29;20453;-75
2022/03/08 01:46:06;;;;;;;0.50;0.10;;;2.40;99.90;;;;;;4962869;29;20439;-76
2022/03/08 01:48:35;;;;;;;0.50;0.10;;;2.40;99.90;;;;;;4967705;29;20451;-75
2022/03/08 01:51:03;;;;;;;0.50;0.10;;;2.40;99.90;;;;;;4974097;29;20487;-77
2022/03/08 01:53:32;;;;;;;0.50;0.10;;;2.30;99.90;;;;;;4954674;29;20471;-75
2022/03/08 01:56:00;;;;;;;0.50;0.10;;;2.30;99.90;;;;;;4954135;29;20459;-74
2022/03/08 01:58:28;;;;;;;0.50;0.10;;;2.20;99.90;;;;;;4957598;28;20522;-75
2022/03/08 02:00:56;;;;;;;0.50;0.10;;;2.20;99.90;;;;;;4969739;28;20438;-76
2022/03/08 02:03:24;;;;;;;0.50;0.10;;;2.10;99.90;;;;;;4972988;29;20450;-76
2022/03/08 02:05:54;;;;;;;0.50;0.10;;;2.10;99.90;;;;;;4961036;29;20462;-75
2022/03/08 02:08:22;;;;;;;0.50;0.10;;;2.10;99.90;;;;;;4958312;29;20471;-75
2022/03/08 02:10:52;;;;;;;0.50;0.10;;;2.10;99.90;;;;;;4958304;29;20957;-75
2022/03/08 02:13:21;;;;;;;0.50;0.10;;;2.10;99.90;;;;;;4960226;29;20483;-74
2022/03/08 02:15:50;;;;;;;0.50;0.10;;;2.10;99.90;;;;;;4950144;29;20454;-75
2022/03/08 02:18:19;;;;;;;0.50;0.10;;;2.10;99.90;;;;;;4962926;28;20927;-75
2022/03/08 02:20:48;;;;;;;0.70;0.63;;;2.10;99.90;;;;;;4966465;29;20443;-76
2022/03/08 02:23:18;;;;;;;0.50;0.10;;;2.10;99.90;;;;;;4961456;29;20530;-74
2022/03/08 02:25:45;;;;;;;0.50;0.10;;;2.10;99.90;;;;;;4961303;29;20530;-76
2022/03/08 02:28:14;;;;;;;0.50;0.10;;;2.20;99.90;;;;;;4961752;29;20481;-76
2022/03/08 02:30:42;;;;;;;0.50;0.10;;;2.10;99.90;;;;;;4957324;29;20554;-74
2022/03/08 02:33:10;;;;;;;0.50;0.10;;;2.10;99.90;;;;;;4956142;29;20491;-76
2022/03/08 02:35:38;;;;;;;0.50;0.10;;;2.10;99.90;;;;;;4956183;29;20455;-73
2022/03/08 02:38:07;;;;;;;0.50;0.10;;;2.10;99.90;;;;;;4956472;28;20443;-76
2022/03/08 02:40:38;;;;;;;0.50;0.10;;;2.10;99.90;;;;;;4956159;29;20481;-74
2022/03/08 02:43:08;;;;;;;0.50;0.10;;;2.00;99.90;;;;;;4957119;29;20443;-75
2022/03/08 02:45:37;;;;;;;0.50;0.10;;;2.00;99.90;;;;;;4955784;29;20447;-75
2022/03/08 02:48:05;;;;;;;0.50;0.10;;;2.00;99.90;;;;;;4957372;29;20443;-75
2022/03/08 02:50:33;;;;;;;0.50;0.20;;;2.10;99.90;;;;;;4960642;29;20590;-75
2022/03/08 02:53:01;;;;;;;0.50;0.10;;;2.00;99.90;;;;;;4961357;29;20482;-75
2022/03/08 02:55:31;;;;;;;0.50;0.10;;;2.10;99.90;;;;;;4946375;29;20458;-74
2022/03/08 02:58:01;;;;;;;0.50;0.10;;;2.10;99.90;;;;;;4941987;29;20535;-75
2022/03/08 03:00:31;;;;;;;0.50;0.10;;;2.10;99.90;;;;;;4944399;29;20468;-75
2022/03/08 03:03:00;;;;;;;0.50;0.10;;;2.10;99.90;;;;;;4941477;29;20440;-75
2022/03/08 03:05:28;;;;;;;0.50;0.10;;;2.00;99.90;;;;;;4935504;29;20974;-75
2022/03/08 03:07:56;;;;;;;0.50;0.10;;;2.00;99.90;;;;;;4935283;29;20800;-75
2022/03/08 03:10:25;;;;;;;0.50;0.10;;;2.00;99.90;;;;;;4947776;29;20482;-75
2022/03/08 03:12:55;;;;;;;0.50;0.10;;;2.00;99.90;;;;;;4968641;29;20482;-76
2022/03/08 03:15:25;;;;;;;0.50;0.10;;;2.00;99.90;;;;;;4956120;29;20439;-75
2022/03/08 03:17:53;;;;;;;0.50;0.10;;;1.90;99.90;;;;;;4954402;29;20439;-75
2022/03/08 03:20:23;;;;;;;0.50;0.10;;;1.90;99.90;;;;;;4953654;29;20486;-73
2022/03/08 03:22:51;;;;;;;0.50;0.10;;;1.90;99.90;;;;;;4953934;29;20467;-75
2022/03/08 03:25:19;;;;;;;0.50;0.10;;;1.90;99.90;;;;;;4956489;29;20458;-73
2022/03/08 03:27:47;;;;;;;0.50;0.10;;;1.80;99.90;;;;;;4959654;29;20474;-75
2022/03/08 03:30:18;;;;;;;0.50;0.10;;;1.80;99.90;;;;;;4957132;29;20502;-74
2022/03/08 03:32:47;;;;;;;0.50;0.10;;;1.80;99.90;;;;;;4954492;29;20486;-75
2022/03/08 03:35:15;;;;;;;0.50;0.10;;;1.80;99.90;;;;;;4953778;29;20447;-74
2022/03/08 03:37:44;;;;;;;0.50;0.10;;;1.80;99.90;;;;;;4953709;29;20458;-74
2022/03/08 03:40:13;;;;;;;0.50;0.10;;;1.80;99.90;;;;;;4956302;29;20826;-76
2022/03/08 03:42:41;;;;;;;0.50;0.10;;;1.80;99.90;;;;;;4956574;29;21131;-74
2022/03/08 03:45:10;;;;;;;0.50;0.10;;;1.80;99.90;;;;;;4958931;29;21004;-73
2022/03/08 03:47:38;;;;;;;0.50;0.10;;;1.80;99.90;;;;;;4959415;29;20531;-73
2022/03/08 03:50:09;;;;;;;0.50;0.10;;;1.70;99.90;;;;;;4954575;28;20486;-74
2022/03/08 03:52:38;;;;;;;0.50;0.10;;;1.70;99.90;;;;;;4950978;29;21277;-74
2022/03/08 03:55:12;;;;;;;0.60;0.47;;;1.80;99.90;;;;;;4938180;29;20511;-74
2022/03/08 03:57:40;;;;;;;0.50;0.10;;;1.80;99.90;;;;;;4939499;29;21158;-73
2022/03/08 04:00:11;;;;;;;0.60;0.20;;;1.90;99.90;;;;;;4967518;28;20490;-74
2022/03/08 04:02:39;;;;;;;0.50;0.10;;;1.90;99.90;;;;;;4958235;29;20798;-73
2022/03/08 04:05:10;;;;;;;0.50;0.10;;;1.90;99.90;;;;;;4957128;29;20443;-74
2022/03/08 04:07:38;;;;;;;0.50;0.20;;;1.90;99.90;;;;;;4956755;29;20806;-74
2022/03/08 04:10:07;;;;;;;0.60;0.30;;;1.90;99.90;;;;;;4957410;29;20483;-74
2022/03/08 04:12:35;;;;;;;0.50;0.10;;;1.90;99.90;;;;;;4956968;29;20449;-74
2022/03/08 04:15:04;;;;;;;0.50;0.10;;;1.90;99.90;;;;;;4956527;29;20805;-73
2022/03/08 04:17:32;;;;;;;0.50;0.10;;;1.80;99.90;;;;;;4956478;29;20462;-73
2022/03/08 04:20:00;;;;;;;0.50;0.10;;;1.80;99.90;;;;;;4956915;29;20681;-74
2022/03/08 04:22:29;;;;;;;0.50;0.10;;;1.80;99.90;;;;;;4958697;29;20451;-74
2022/03/08 04:24:58;;;;;;;0.50;0.10;;;1.80;99.90;;;;;;4961913;29;20451;-74
2022/03/08 04:27:26;;;;;;;0.50;0.10;;;1.80;99.90;;;;;;4960759;29;20458;-74
2022/03/08 04:29:54;;;;;;;0.50;0.10;;;1.70;99.90;;;;;;4957433;29;20467;-73
2022/03/08 04:32:22;;;;;;;0.50;0.10;;;1.70;99.90;;;;;;4963756;29;20946;-75
2022/03/08 04:34:50;;;;;;;0.50;0.10;;;1.60;99.90;;;;;;4963159;29;20490;-74
2022/03/08 04:37:18;;;;;;;0.50;0.10;;;1.70;99.90;;;;;;4969999;29;20450;-74
2022/03/08 04:39:47;;;;;;;0.50;0.10;;;1.60;99.90;;;;;;4970582;29;20837;-74
2022/03/08 04:42:15;;;;;;;0.50;0.10;;;1.70;99.90;;;;;;4963974;29;20454;-74
2022/03/08 04:44:42;;;;;;;0.50;0.10;;;1.70;99.90;;;;;;4962726;29;20443;-74
2022/03/08 04:47:10;;;;;;;0.50;0.10;;;1.70;99.90;;;;;;4956595;29;20486;-74
2022/03/08 04:49:38;;;;;;;0.50;0.10;;;1.60;99.90;;;;;;4956102;29;20478;-74
2022/03/08 04:52:07;;;;;;;0.50;0.10;;;1.60;99.90;;;;;;4956346;29;20451;-74
2022/03/08 04:54:35;;;;;;;0.50;0.10;;;1.60;99.90;;;;;;4956058;29;20482;-75
2022/03/08 04:57:05;;;;;;;0.50;0.10;;;1.50;99.90;;;;;;4955685;29;20553;-74
2022/03/08 04:59:32;;;;;;;0.50;0.10;;;1.50;99.90;;;;;;4955649;29;20471;-75
2022/03/08 05:02:00;;;;;;;0.50;0.10;;;1.50;99.90;;;;;;4954761;28;20823;-74
2022/03/08 05:04:29;;;;;;;0.50;0.10;;;1.50;99.90;;;;;;4954560;28;20478;-74
2022/03/08 05:06:57;;;;;;;0.50;0.30;;;1.80;99.90;;;;;;4958395;29;20451;-74
2022/03/08 05:09:25;;;;;;;0.50;0.10;;;1.50;99.90;;;;;;4957796;29;20463;-74
2022/03/08 05:11:53;;;;;;;0.50;0.10;;;1.50;99.90;;;;;;4956691;29;20597;-74
2022/03/08 05:14:22;;;;;;;0.50;0.10;;;1.50;99.90;;;;;;4955330;29;20482;-74
2022/03/08 05:16:51;;;;;;;0.50;0.10;;;1.50;99.90;;;;;;4954951;29;20474;-75
2022/03/08 05:19:22;;;;;;;0.50;0.10;;;1.70;99.90;;;;;;4947949;29;20562;-74
2022/03/08 05:21:50;;;;;;;0.50;0.10;;;2.00;99.90;;;;;;4955761;29;20455;-74
2022/03/08 05:24:18;;;;;;;0.63;0.57;;;1.70;99.90;;;;;;4954916;29;20439;-74
2022/03/08 05:26:46;;;;;;;0.50;0.10;;;1.70;99.90;;;;;;4954719;29;21154;-74
2022/03/08 05:29:13;;;;;;;0.50;0.10;;;1.70;99.90;;;;;;4952162;29;20494;-74
2022/03/08 05:31:43;;;;;;;0.50;0.10;;;1.60;99.90;;;;;;4956686;29;20470;-74
2022/03/08 05:34:10;;;;;;;0.50;0.10;;;1.60;99.90;;;;;;4954966;29;21076;-74
2022/03/08 05:36:38;;;;;;;0.50;0.30;;;1.70;99.90;;;;;;4953872;29;20455;-74
2022/03/08 05:39:07;;;;;;;0.50;0.10;;;1.60;99.90;;;;;;4955728;29;20484;-74
2022/03/08 05:41:35;;;;;;;0.50;0.10;;;1.60;99.90;;;;;;4957896;29;20985;-73
2022/03/08 05:44:02;;;;;;;0.50;0.10;;;1.60;99.90;;;;;;4958253;29;20444;-74
2022/03/08 05:46:30;;;;;;;0.50;0.10;;;1.50;99.90;;;;;;4952329;29;20992;-73
2022/03/08 05:49:00;;;;;;;0.50;0.10;;;1.50;99.90;;;;;;4954321;29;20472;-74
2022/03/08 05:51:27;;;;;;;0.50;0.10;;;1.50;99.90;;;;;;4954210;29;20976;-74
2022/03/08 05:53:55;;;;;;;3.60;3.40;;;1.40;99.90;;;;;;4956055;29;20480;-74
2022/03/08 05:56:23;;;;;;;0.50;0.10;;;1.40;99.90;;;;;;4957508;29;20454;-74
2022/03/08 05:58:51;;;;;;;0.50;0.10;;;1.40;99.90;;;;;;4956066;29;20479;-74
2022/03/08 06:01:19;;;;;;;0.50;0.10;;;1.40;99.90;;;;;;4958831;29;20451;-74
2022/03/08 06:03:47;;;;;;;0.50;0.10;;;1.40;99.90;;;;;;4954744;29;20475;-74
2022/03/08 06:06:16;;;;;;;0.50;0.20;;;1.40;99.90;;;;;;4953547;29;20983;-74
2022/03/08 06:08:46;;;;;;;0.60;0.40;;;1.50;99.90;;;;;;4953961;29;20478;-75
2022/03/08 06:11:13;;;;;;;0.50;0.10;;;1.40;99.90;;;;;;4954850;29;20471;-74
2022/03/08 06:13:42;;;;;;;0.50;0.10;;;1.40;99.90;;;;;;4952037;28;20466;-74
2022/03/08 06:16:10;;;;;;;0.50;0.10;;;1.50;99.90;;;;;;4954568;29;20459;-74
2022/03/08 06:18:38;;;;;;;0.50;0.10;;;1.40;99.90;;;;;;4954652;29;20450;-75
2022/03/08 06:21:06;;;;;;;0.50;0.10;;;1.40;99.90;;;;;;4955306;29;20447;-74
2022/03/08 06:23:36;;;;;;;0.50;0.10;;;1.40;99.90;;;;;;4935860;29;20444;-74
2022/03/08 06:26:04;;;;;;;0.50;0.10;;;1.40;99.90;;;;;;4951394;28;20451;-73
2022/03/08 06:28:33;;;;;;;0.50;0.10;;;1.50;99.90;;;;;;4955912;28;20560;-75
2022/03/08 06:31:00;;;;;;;0.50;0.10;;;1.50;99.90;;;;;;4956040;29;20553;-74
2022/03/08 06:33:28;;;;;;;0.50;0.10;;;1.50;99.90;;;;;;4955444;29;20810;-75
2022/03/08 06:35:56;;;;;;;0.50;0.10;;;1.50;99.90;;;;;;4955070;29;20494;-74
2022/03/08 06:38:25;;;;;;;0.50;0.10;;;1.50;99.90;;;;;;4958199;29;20451;-75
2022/03/08 06:40:56;;;;;;;0.50;0.10;;;1.50;99.90;;;;;;4959935;29;20454;-75
2022/03/08 06:43:24;;;;;;;0.50;0.10;;;1.50;99.90;;;;;;4953413;29;20511;-75
2022/03/08 06:45:52;;;;;;;0.50;0.10;;;1.50;99.90;;;;;;4964078;29;20537;-74
2022/03/08 06:48:20;;;;;;;0.50;0.10;;;1.60;99.90;;;;;;4954769;29;20499;-75
2022/03/08 06:50:47;;;;;;;0.50;0.10;;;1.60;99.90;;;;;;4953105;29;20476;-74
2022/03/08 06:53:15;;;;;;;0.50;0.10;;;1.60;99.90;;;;;;4952534;29;20505;-75
2022/03/08 06:55:43;;;;;;;0.50;0.10;;;1.60;99.90;;;;;;4954386;29;20497;-75
2022/03/08 06:58:12;;;;;;;0.50;0.10;;;1.70;99.90;;;;;;4956022;29;20462;-75
2022/03/08 07:00:40;;;;;;;0.50;0.10;;;1.80;99.90;;;;;;4955405;29;20465;-76
2022/03/08 07:03:08;;;;;;;0.50;0.10;;;1.80;99.90;;;;;;4955684;29;20454;-74
2022/03/08 07:05:38;;;;;;;0.50;0.10;;;1.80;99.90;;;;;;4948584;29;20451;-75
2022/03/08 07:08:07;;;;;;;0.50;0.10;;;1.80;99.90;;;;;;4954210;29;20461;-75
2022/03/08 07:10:35;;;;;;;0.50;0.30;;;1.90;99.90;;;;;;4953664;29;20493;-75
2022/03/08 07:13:02;;;;;;;0.50;0.10;;;1.90;99.90;;;;;;4950979;28;20938;-75
2022/03/08 07:15:32;;;;;;;0.50;0.10;;;2.00;99.90;;;;;;4958190;28;20488;-75
2022/03/08 07:18:00;;;;;;;0.50;0.10;;;2.10;99.90;;;;;;4967668;28;20444;-75
2022/03/08 07:20:28;;;;;;;0.50;0.10;;;2.10;99.90;;;;;;4954488;29;21060;-76
2022/03/08 07:22:56;;;;;;;0.50;0.10;;;2.10;99.90;;;;;;4955136;29;20470;-76
2022/03/08 07:25:24;;;;;;;0.50;0.20;;;2.10;99.90;;;;;;4953454;29;20523;-75
2022/03/08 07:27:52;;;;;;;0.50;0.10;;;2.20;99.90;;;;;;4954346;29;20603;-75
2022/03/08 07:30:20;;;;;;;0.50;0.13;;;2.20;99.90;;;;;;4960591;29;21033;-75
2022/03/08 07:32:51;;;;;;;0.50;0.10;;;2.30;99.90;;;;;;4959493;29;20440;-76
2022/03/08 07:35:19;;;;;;;0.50;0.10;;;2.20;99.90;;;;;;4957883;29;20474;-75
2022/03/08 07:37:48;;;;;;;0.50;0.10;;;2.30;99.90;;;;;;4959108;29;20455;-75
2022/03/08 07:40:15;;;;;;;0.50;0.10;;;2.30;99.90;;;;;;4956943;29;20473;-75
2022/03/08 07:42:44;;;;;;;0.50;0.20;;;2.40;99.90;;;;;;4954884;29;20830;-74
2022/03/08 07:45:12;;;;;;;0.50;0.10;;;2.40;99.90;;;;;;4955404;29;20458;-75
2022/03/08 07:47:40;;;;;;;0.50;0.10;;;2.50;99.90;;;;;;4955937;29;20458;-74
2022/03/08 07:50:11;;;;;;;0.57;0.30;;;2.50;99.90;;;;;;4955825;29;20869;-75
2022/03/08 07:52:39;;;;;;;0.50;0.20;;;2.50;99.90;;;;;;4958906;28;20451;-76
2022/03/08 07:55:08;;;;;;;0.50;0.10;;;2.60;99.90;;;;;;4958403;29;20480;-75
2022/03/08 07:57:36;;;;;;;0.50;0.10;;;2.60;99.90;;;;;;4958356;29;20546;-76
2022/03/08 08:00:25;;;;;;;0.80;0.70;;;2.70;99.90;;;;;;4956868;29;20606;-77
2022/03/08 08:02:53;;;;;;;0.50;0.10;;;2.80;99.90;;;;;;4956815;29;20968;-76
2022/03/08 08:05:22;;;;;;;0.50;0.10;;;2.80;99.90;;;;;;4957170;29;20460;-77
2022/03/08 08:07:52;;;;;;;0.50;0.10;;;2.80;99.90;;;;;;4955414;29;20821;-76
2022/03/08 08:10:20;;;;;;;0.50;0.10;;;3.00;99.90;;;;;;4956995;29;20979;-77
2022/03/08 08:12:47;;;;;;;0.50;0.10;;;3.00;99.90;;;;;;4953461;29;20455;-75
2022/03/08 08:15:15;;;;;;;0.50;0.10;;;3.10;99.90;;;;;;4955384;28;20479;-77
2022/03/08 08:17:44;;;;;;;0.50;0.10;;;3.20;99.90;;;;;;4955190;29;20450;-77
2022/03/08 08:20:12;;;;;;;0.50;0.10;;;3.20;99.90;;;;;;4955396;29;20469;-76
2022/03/08 08:22:41;;;;;;;0.50;0.10;;;3.30;99.90;;;;;;4954099;29;20461;-76
2022/03/08 08:25:10;;;;;;;0.50;0.10;;;3.40;99.90;;;;;;4954612;29;20476;-76
2022/03/08 08:27:39;;;;;;;0.50;0.10;;;3.50;99.90;;;;;;4954991;29;20527;-75
2022/03/08 08:30:09;;;;;;;1.97;1.80;;;3.50;99.90;;;;;;4954792;29;20481;-76
2022/03/08 08:32:37;;;;;;;0.50;0.10;;;3.60;99.90;;;;;;4954424;29;20842;-75
2022/03/08 08:35:05;;;;;;;0.50;0.10;;;3.70;99.90;;;;;;4954668;29;20481;-75
2022/03/08 08:37:33;;;;;;;0.50;0.10;;;3.70;99.90;;;;;;4954978;28;20472;-75
2022/03/08 08:40:03;;;;;;;0.50;0.10;;;4.00;99.90;;;;;;4951865;29;20850;-75
2022/03/08 08:42:31;;;;;;;0.50;0.10;;;4.00;99.90;;;;;;4958480;29;20461;-75
2022/03/08 08:44:59;;;;;;;0.50;0.10;;;4.10;99.90;;;;;;4958532;29;20444;-76
2022/03/08 08:47:27;;;;;;;0.50;0.10;;;4.30;99.90;;;;;;4958792;29;20466;-74
2022/03/08 08:49:54;;;;;;;0.50;0.10;;;4.30;99.90;;;;;;4957151;29;20502;-76
2022/03/08 08:52:22;;;;;;;0.50;0.10;;;4.40;99.90;;;;;;4956841;29;20458;-76
2022/03/08 08:54:50;;;;;;;0.50;0.10;;;4.40;99.90;;;;;;4957424;28;20459;-76
2022/03/08 08:57:20;;;;;;;0.50;0.10;;;4.50;99.90;;;;;;4961065;28;20475;-75
2022/03/08 08:59:48;;;;;;;0.50;0.10;;;4.60;99.90;;;;;;4966821;28;20491;-75
2022/03/08 09:02:16;;;;;;;0.60;0.10;;;4.70;99.90;;;;;;4966931;28;20527;-75
2022/03/08 09:04:44;;;;;;;0.50;0.10;;;4.70;99.90;;;;;;4958156;28;20454;-75
2022/03/08 09:07:12;;;;;;;0.50;0.10;;;4.80;99.90;;;;;;4954972;28;20469;-76
2022/03/08 09:09:40;;;;;;;0.50;0.10;;;4.90;99.90;;;;;;4958933;28;20478;-75
2022/03/08 09:12:08;;;;;;;0.50;0.10;;;5.00;99.90;;;;;;4956828;28;20464;-75
2022/03/08 09:14:38;;;;;;;0.60;0.30;;;5.10;99.90;;;;;;4953013;28;20469;-75
2022/03/08 09:17:05;;;;;;;0.50;0.10;;;5.10;99.90;;;;;;4958962;28;20485;-74
2022/03/08 09:19:33;;;;;;;0.60;0.30;;;5.10;99.90;;;;;;4956935;28;20468;-75
2022/03/08 09:22:01;;;;;;;0.50;0.10;;;5.20;99.90;;;;;;4958270;28;20462;-75
2022/03/08 09:24:29;;;;;;;1.60;1.50;;;5.20;99.90;;;;;;4959310;28;20447;-76
2022/03/08 09:26:57;;;;;;;0.60;0.10;;;5.30;99.90;;;;;;4954512;29;20451;-77
2022/03/08 09:29:25;;;;;;;0.50;0.10;;;5.40;99.90;;;;;;4945180;29;20472;-76
2022/03/08 09:31:54;;;;;;;0.50;0.10;;;5.40;99.90;;;;;;4949139;29;20538;-75
2022/03/08 09:34:22;;;;;;;3.60;0.97;;;5.50;99.90;;;;;;4955363;29;20449;-75
2022/03/08 09:36:50;;;;;;;0.50;0.10;;;5.60;99.90;;;;;;4958647;29;20540;-75
2022/03/08 09:39:18;;;;;;;0.60;0.10;;;5.60;99.90;;;;;;4953790;28;20480;-76
2022/03/08 09:41:51;;;;;;;0.50;0.10;;;5.60;99.90;;;;;;4955775;29;20462;-76
2022/03/08 09:44:20;;;;;;;0.50;0.10;;;5.70;99.90;;;;;;4955683;28;20995;-75
2022/03/08 09:46:48;;;;;;;0.50;0.10;;;5.80;99.90;;;;;;4953086;29;20437;-76
2022/03/08 09:49:17;;;;;;;0.50;0.20;;;5.90;99.90;;;;;;4954269;28;20999;-75
2022/03/08 09:51:46;;;;;;;0.50;0.10;;;5.90;99.90;;;;;;4956302;29;20465;-75
2022/03/08 09:54:15;;;;;;;0.50;0.10;;;6.10;99.90;;;;;;4956740;29;20452;-75
2022/03/08 09:56:43;;;;;;;1.00;0.50;;;6.20;99.90;;;;;;4946681;29;20517;-75
2022/03/08 09:59:14;;;;;;;0.60;0.10;;;6.30;99.90;;;;;;4939072;29;20473;-75
2022/03/08 10:01:42;;;;;;;1.10;0.87;;;6.40;99.90;;;;;;4937259;29;20533;-76
2022/03/08 10:04:10;;;;;;;0.60;0.10;;;6.40;99.90;;;;;;4937598;29;20444;-76
2022/03/08 10:07:00;;;;;;;0.50;0.10;;;6.50;99.90;;;;;;4956956;29;20458;-76
2022/03/08 10:09:28;;;;;;;0.60;0.20;;;6.60;99.90;;;;;;4957402;28;20487;-76
2022/03/08 10:11:57;;;;;;;0.60;0.10;;;6.70;99.90;;;;;;4957442;28;20484;-75
2022/03/08 10:14:37;;;;;;;0.60;0.47;;;6.80;99.90;;;;;;4954961;29;20447;-76
2022/03/08 10:17:05;;;;;;;0.80;0.53;;;6.80;99.90;;;;;;4954157;29;20489;-76
2022/03/08 10:19:44;;;;;;;0.70;0.60;;;6.90;99.90;;;;;;4957111;29;20470;-76
2022/03/08 10:22:24;;;;;;;0.50;0.10;;;7.00;99.90;;;;;;4957326;29;20465;-76
2022/03/08 10:24:52;;;;;;;0.50;0.10;;;7.00;99.90;;;;;;4956612;29;20448;-75
2022/03/08 10:27:20;;;;;;;0.60;0.10;;;7.20;99.90;;;;;;4955676;29;20440;-76
2022/03/08 10:29:50;;;;;;;0.50;0.10;;;7.20;99.90;;;;;;4955762;29;20476;-76
2022/03/08 10:32:21;;;;;;;0.60;0.20;;;7.20;99.90;;;;;;4955164;29;20447;-75
2022/03/08 10:34:52;;;;;;;0.60;0.20;;;7.40;99.90;;;;;;4956154;29;20452;-75
2022/03/08 10:37:24;;;;;;;0.80;0.60;;;7.40;99.90;;;;;;4964982;29;20487;-76
2022/03/08 10:39:53;;;;;;;0.50;0.10;;;7.40;99.90;;;;;;4961986;29;20609;-76
2022/03/08 10:42:22;;;;;;;0.50;0.20;;;7.50;99.90;;;;;;4956309;29;20458;-76
2022/03/08 10:44:52;;;;;;;0.60;0.10;;;7.50;99.90;;;;;;4953989;28;20465;-75
2022/03/08 10:47:19;;;;;;;0.60;0.20;;;7.50;99.90;;;;;;4954425;28;20439;-76
2022/03/08 10:49:50;;;;;;;0.60;0.10;;;7.60;99.90;;;;;;4954279;29;20490;-75
2022/03/08 10:52:25;;;;;;;0.73;0.47;;;7.70;99.90;;;;;;4954964;28;20446;-75
2022/03/08 10:54:55;;;;;;;0.60;0.10;;;7.70;99.90;;;;;;4955391;29;20444;-76
2022/03/08 10:57:23;;;;;;;2.27;2.07;;;7.70;99.90;;;;;;4954688;29;21259;-76
2022/03/08 11:00:14;;;;;;;7.27;6.93;;;7.80;99.90;;;;;;4954393;28;20465;-75
2022/03/08 11:02:52;;;;;;;0.53;0.10;;;7.80;99.90;;;;;;4962607;28;20450;-76
2022/03/08 11:05:22;;;;;;;0.60;0.10;;;7.90;99.90;;;;;;4956614;29;20448;-76
2022/03/08 11:07:54;;;;;;;0.60;0.10;;;8.00;99.90;;;;;;4959676;28;20514;-75
2022/03/08 11:10:24;;;;;;;0.60;0.10;;;8.00;99.90;;;;;;4960401;29;20993;-76
2022/03/08 11:12:53;;;;;;;0.60;0.20;;;8.10;99.90;;;;;;4939946;29;20442;-75
2022/03/08 11:15:22;;;;;;;1.53;1.30;;;8.20;99.90;;;;;;4947909;29;20468;-76
2022/03/08 11:17:52;;;;;;;1.43;1.30;;;9.10;99.90;;;;;;4955571;29;20513;-77
2022/03/08 11:20:22;;;;;;;0.60;0.10;;;8.40;99.90;;;;;;4955264;29;21086;-76
2022/03/08 11:22:53;;;;;;;1.30;0.50;;;8.40;99.90;;;;;;4956731;29;20445;-76
2022/03/08 11:25:24;;;;;;;2.30;0.30;;;8.50;99.90;;;;;;4940626;29;20458;-76
2022/03/08 11:28:13;;;;;;;0.60;0.30;;;8.60;99.90;;;;;;4955716;28;20445;-76
2022/03/08 11:30:44;;;;;;;0.60;0.20;;;8.60;99.90;;;;;;4970362;28;20465;-75
2022/03/08 11:33:18;;;;;;;1.27;0.90;;;8.70;99.90;;;;;;4958724;28;21237;-76
2022/03/08 11:35:52;;;;;;;0.60;0.10;;;8.70;99.90;;;;;;4969721;28;20439;-76
2022/03/08 11:38:21;;;;;;;0.60;0.10;;;8.80;99.90;;;;;;4959286;28;20829;-76
2022/03/08 11:40:53;;;;;;;0.60;0.10;;;8.80;99.90;;;;;;4964190;28;20450;-75
2022/03/08 11:43:22;;;;;;;0.60;0.10;;;8.90;99.90;;;;;;4966042;28;20868;-75
2022/03/08 11:45:50;;;;;;;0.60;0.20;;;9.10;99.90;;;;;;4966490;28;20446;-76
2022/03/08 11:48:20;;;;;;;1.37;0.27;;;9.10;99.90;;;;;;4958931;28;20447;-76
2022/03/08 11:50:48;;;;;;;1.57;1.43;;;9.10;99.90;;;;;;4956057;28;20656;-74
2022/03/08 11:53:18;;;;;;;0.60;0.10;;;9.10;99.90;;;;;;4956898;29;20466;-74
2022/03/08 11:55:50;;;;;;;0.60;0.10;;;9.10;99.90;;;;;;4958138;28;20450;-76
2022/03/08 11:58:21;;;;;;;0.60;0.10;;;9.20;99.90;;;;;;4956480;28;20486;-75
2022/03/08 12:00:51;;;;;;;0.60;0.20;;;9.20;99.90;;;;;;4959447;28;20445;-76
2022/03/08 12:03:38;;;;;;;0.60;0.10;;;9.20;99.90;;;;;;4956595;28;20525;-76
2022/03/08 12:06:07;;;;;;;0.60;0.20;;;9.20;99.90;;;;;;4958576;28;20510;-75
2022/03/08 12:09:01;;;;;;;0.60;0.10;;;9.30;99.90;;;;;;4953144;28;20462;-75
2022/03/08 12:11:53;;;;;;;0.60;0.10;;;9.30;99.90;;;;;;4954103;28;20447;-76
2022/03/08 12:14:29;;;;;;;0.60;0.10;;;9.40;99.90;;;;;;4955479;29;20438;-76
2022/03/08 12:17:09;;;;;;;0.60;0.10;;;9.40;99.90;;;;;;4958571;28;20481;-76
2022/03/08 12:19:39;;;;;;;0.60;0.23;;;9.50;99.90;;;;;;4962760;29;20486;-75
2022/03/08 12:22:14;;;;;;;0.60;0.10;;;9.60;99.90;;;;;;4953600;28;20451;-76
2022/03/08 12:24:46;;;;;;;0.60;0.20;;;9.60;99.90;;;;;;4962589;29;20498;-75
2022/03/08 12:27:16;;;;;;;0.60;0.10;;;9.60;99.90;;;;;;4963272;29;20443;-77
2022/03/08 12:30:05;;;;;;;1.37;1.27;;;9.60;99.90;;;;;;4964696;29;20521;-74
2022/03/08 12:32:39;;;;;;;0.60;0.20;;;9.70;99.90;;;;;;4962438;29;20450;-76
2022/03/08 12:35:22;;;;;;;0.60;0.20;;;9.80;99.90;;;;;;4960459;29;20460;-75
2022/03/08 12:37:52;;;;;;;0.60;0.10;;;9.80;99.90;;;;;;4949849;29;20478;-75
2022/03/08 12:40:26;;;;;;;0.60;0.10;;;9.90;99.90;;;;;;4940391;29;20475;-75
2022/03/08 12:42:56;;;;;;;0.77;0.47;;;9.90;99.90;;;;;;4941057;29;20482;-75
2022/03/08 12:45:36;;;;;;;0.60;0.20;;;10.00;99.90;;;;;;4945805;29;20471;-75
2022/03/08 12:48:07;;;;;;;0.70;0.70;;;10.00;99.90;;;;;;4958004;29;20439;-76
2022/03/08 12:50:37;;;;;;;0.60;0.10;;;10.00;99.90;;;;;;4959881;29;20474;-73
2022/03/08 12:53:07;;;;;;;21.63;19.50;;;10.00;99.90;;;;;;4957802;29;20465;-75
2022/03/08 12:55:37;;;;;;;0.60;0.10;;;10.00;99.90;;;;;;4968429;29;20456;-74
2022/03/08 12:58:07;;;;;;;0.60;0.10;;;10.10;99.90;;;;;;4963291;29;20491;-76
2022/03/08 13:00:39;;;;;;;0.60;0.10;;;10.10;99.90;;;;;;4958936;29;20482;-75
2022/03/08 13:03:10;;;;;;;0.60;0.10;;;10.10;99.90;;;;;;4958556;29;20477;-74
2022/03/08 13:05:40;;;;;;;0.60;0.10;;;10.10;99.90;;;;;;4958599;29;20505;-75
2022/03/08 13:08:10;;;;;;;0.60;0.10;;;10.20;99.90;;;;;;4959957;29;20985;-74
2022/03/08 13:10:42;;;;;;;0.60;0.10;;;10.30;99.90;;;;;;4957975;29;20478;-74